sensor_id;sensor_type;location;lat;lon;timestamp;pressure;altitude;pressure_sealevel;temperature;humidity
4392;BME280;2210;51.938;8.488;2022-11-20T00:03:03;100260.78;;;-3.48;100.00
4392;BME280;2210;51.938;8.488;2022-11-20T00:07:03;100258.09;;;-3.48;100.00
4392;BME280;2210;51.938;8.488;2022-11-20T00:11:08;100256.56;;;-3.50;100.00
4392;BME280;2210;51.938;8.488;2022-11-20T00:15:09;100249.00;;;-3.47;100.00
4392;BME280;2210;51.938;8.488;2022-11-20T00:19:10;100244.63;;;-3.48;100.00
4392;BME280;2210;51.938;8.488;2022-11-20T00:23:10;100247.84;;;-3.62;100.00
4392;BME280;2210;51.938;8.488;2022-11-20T00:27:10;100236.94;;;-3.61;100.00
4392;BME280;2210;51.938;8.488;2022-11-20T00:31:13;100228.69;;;-3.59;100.00
4392;BME280;2210;51.938;8.488;2022-11-20T00:35:14;100233.22;;;-3.60;100.00
4392;BME280;2210;51.938;8.488;2022-11-20T00:39:15;100229.38;;;-3.57;100.00
4392;BME280;2210;51.938;8.488;2022-11-20T00:43:15;100234.47;;;-3.54;100.00
4392;BME280;2210;51.938;8.488;2022-11-20T00:47:15;100232.69;;;-3.63;100.00
4392;BME280;2210;51.938;8.488;2022-11-20T00:51:18;100234.66;;;-3.65;100.00
4392;BME280;2210;51.938;8.488;2022-11-20T00:55:19;100234.34;;;-3.62;100.00
4392;BME280;2210;51.938;8.488;2022-11-20T00:59:19;100236.38;;;-3.64;100.00
4392;BME280;2210;51.938;8.488;2022-11-20T01:03:19;100235.28;;;-3.71;100.00
4392;BME280;2210;51.938;8.488;2022-11-20T01:07:20;100233.59;;;-3.73;100.00
4392;BME280;2210;51.938;8.488;2022-11-20T01:11:23;100237.13;;;-3.72;100.00
4392;BME280;2210;51.938;8.488;2022-11-20T01:15:23;100235.97;;;-3.69;100.00
4392;BME280;2210;51.938;8.488;2022-11-20T01:19:24;100241.59;;;-3.81;100.00
4392;BME280;2210;51.938;8.488;2022-11-20T01:23:24;100239.91;;;-3.64;100.00
4392;BME280;2210;51.938;8.488;2022-11-20T01:27:24;100240.06;;;-3.65;100.00
4392;BME280;2210;51.938;8.488;2022-11-20T01:31:27;100244.63;;;-3.66;100.00
4392;BME280;2210;51.938;8.488;2022-11-20T01:35:27;100245.59;;;-3.67;100.00
4392;BME280;2210;51.938;8.488;2022-11-20T01:39:28;100230.91;;;-3.73;100.00
4392;BME280;2210;51.938;8.488;2022-11-20T01:43:31;100234.28;;;-3.70;100.00
4392;BME280;2210;51.938;8.488;2022-11-20T01:47:41;100234.66;;;-3.65;100.00
4392;BME280;2210;51.938;8.488;2022-11-20T01:51:51;100222.19;;;-3.66;100.00
4392;BME280;2210;51.938;8.488;2022-11-20T01:55:56;100220.88;;;-3.62;100.00
4392;BME280;2210;51.938;8.488;2022-11-20T02:00:12;100221.00;;;-3.54;100.00
4392;BME280;2210;51.938;8.488;2022-11-20T02:04:16;100222.38;;;-3.50;100.00
4392;BME280;2210;51.938;8.488;2022-11-20T02:08:18;100221.44;;;-3.59;100.00
4392;BME280;2210;51.938;8.488;2022-11-20T02:12:26;100219.66;;;-3.68;100.00
4392;BME280;2210;51.938;8.488;2022-11-20T02:16:47;100226.00;;;-3.87;100.00
4392;BME280;2210;51.938;8.488;2022-11-20T02:20:53;100222.84;;;-4.00;100.00
4392;BME280;2210;51.938;8.488;2022-11-20T02:24:56;100213.59;;;-3.98;100.00
4392;BME280;2210;51.938;8.488;2022-11-20T02:29:00;100213.66;;;-4.08;100.00
4392;BME280;2210;51.938;8.488;2022-11-20T02:33:02;100206.00;;;-4.02;100.00
4392;BME280;2210;51.938;8.488;2022-11-20T02:37:02;100203.59;;;-4.05;100.00
4392;BME280;2210;51.938;8.488;2022-11-20T02:41:03;100195.56;;;-4.15;100.00
4392;BME280;2210;51.938;8.488;2022-11-20T02:45:04;100194.66;;;-4.06;100.00
4392;BME280;2210;51.938;8.488;2022-11-20T02:49:05;100199.66;;;-4.39;100.00
4392;BME280;2210;51.938;8.488;2022-11-20T02:53:05;100186.31;;;-4.31;100.00
4392;BME280;2210;51.938;8.488;2022-11-20T02:57:06;100179.97;;;-4.40;100.00
4392;BME280;2210;51.938;8.488;2022-11-20T03:01:06;100167.59;;;-4.60;100.00
4392;BME280;2210;51.938;8.488;2022-11-20T03:05:06;100170.50;;;-4.44;100.00
4392;BME280;2210;51.938;8.488;2022-11-20T03:09:07;100167.91;;;-4.35;100.00
4392;BME280;2210;51.938;8.488;2022-11-20T03:13:07;100166.50;;;-4.40;100.00
4392;BME280;2210;51.938;8.488;2022-11-20T03:17:07;100170.00;;;-4.29;100.00
4392;BME280;2210;51.938;8.488;2022-11-20T03:21:08;100171.16;;;-4.32;100.00
4392;BME280;2210;51.938;8.488;2022-11-20T03:25:09;100178.97;;;-4.38;100.00
4392;BME280;2210;51.938;8.488;2022-11-20T03:29:09;100177.16;;;-4.38;100.00
4392;BME280;2210;51.938;8.488;2022-11-20T03:33:09;100169.91;;;-4.37;100.00
4392;BME280;2210;51.938;8.488;2022-11-20T03:37:10;100171.78;;;-4.48;100.00
4392;BME280;2210;51.938;8.488;2022-11-20T03:41:12;100165.72;;;-4.50;100.00
4392;BME280;2210;51.938;8.488;2022-11-20T03:45:15;100171.41;;;-4.53;100.00
4392;BME280;2210;51.938;8.488;2022-11-20T03:49:16;100175.13;;;-4.64;100.00
4392;BME280;2210;51.938;8.488;2022-11-20T03:53:16;100174.00;;;-4.61;100.00
4392;BME280;2210;51.938;8.488;2022-11-20T03:57:19;100177.94;;;-4.55;100.00
4392;BME280;2210;51.938;8.488;2022-11-20T04:01:25;100165.22;;;-4.63;100.00
4392;BME280;2210;51.938;8.488;2022-11-20T04:05:25;100160.72;;;-4.72;100.00
4392;BME280;2210;51.938;8.488;2022-11-20T04:09:26;100165.28;;;-4.83;100.00
4392;BME280;2210;51.938;8.488;2022-11-20T04:13:26;100160.41;;;-4.69;100.00
4392;BME280;2210;51.938;8.488;2022-11-20T04:17:26;100175.44;;;-4.77;100.00
4392;BME280;2210;51.938;8.488;2022-11-20T04:21:27;100170.66;;;-4.83;100.00
4392;BME280;2210;51.938;8.488;2022-11-20T04:25:28;100167.69;;;-4.80;100.00
4392;BME280;2210;51.938;8.488;2022-11-20T04:29:28;100171.75;;;-4.76;100.00
4392;BME280;2210;51.938;8.488;2022-11-20T04:33:28;100164.69;;;-4.77;100.00
4392;BME280;2210;51.938;8.488;2022-11-20T04:37:29;100170.78;;;-4.75;100.00
4392;BME280;2210;51.938;8.488;2022-11-20T04:41:31;100165.28;;;-4.83;100.00
4392;BME280;2210;51.938;8.488;2022-11-20T04:45:31;100165.28;;;-4.83;100.00
4392;BME280;2210;51.938;8.488;2022-11-20T04:49:32;100173.34;;;-4.83;100.00
4392;BME280;2210;51.938;8.488;2022-11-20T04:53:32;100168.53;;;-4.89;100.00
4392;BME280;2210;51.938;8.488;2022-11-20T04:57:33;100163.06;;;-4.97;100.00
4392;BME280;2210;51.938;8.488;2022-11-20T05:01:33;100154.28;;;-4.99;100.00
4392;BME280;2210;51.938;8.488;2022-11-20T05:05:34;100153.28;;;-4.98;100.00
4392;BME280;2210;51.938;8.488;2022-11-20T05:09:34;100166.44;;;-4.95;100.00
4392;BME280;2210;51.938;8.488;2022-11-20T05:13:35;100167.59;;;-4.98;100.00
4392;BME280;2210;51.938;8.488;2022-11-20T05:17:35;100170.09;;;-4.86;100.00
4392;BME280;2210;51.938;8.488;2022-11-20T05:21:35;100168.13;;;-4.94;100.00
4392;BME280;2210;51.938;8.488;2022-11-20T05:25:39;100161.06;;;-4.95;100.00
4392;BME280;2210;51.938;8.488;2022-11-20T05:38:46;100156.31;;;-4.74;100.00
4392;BME280;2210;51.938;8.488;2022-11-20T05:42:46;100150.09;;;-4.74;100.00
4392;BME280;2210;51.938;8.488;2022-11-20T05:46:46;100153.03;;;-4.67;100.00
4392;BME280;2210;51.938;8.488;2022-11-20T05:50:47;100149.53;;;-4.68;100.00
4392;BME280;2210;51.938;8.488;2022-11-20T05:54:48;100146.53;;;-4.65;100.00
4392;BME280;2210;51.938;8.488;2022-11-20T05:58:49;100146.84;;;-4.68;100.00
4392;BME280;2210;51.938;8.488;2022-11-20T06:02:49;100143.59;;;-4.71;100.00
4392;BME280;2210;51.938;8.488;2022-11-20T06:06:50;100147.81;;;-4.69;100.00
4392;BME280;2210;51.938;8.488;2022-11-20T06:10:50;100145.19;;;-4.79;100.00
4392;BME280;2210;51.938;8.488;2022-11-20T06:14:50;100157.91;;;-4.81;100.00
4392;BME280;2210;51.938;8.488;2022-11-20T06:18:50;100149.56;;;-4.87;100.00
4392;BME280;2210;51.938;8.488;2022-11-20T06:22:51;100150.56;;;-4.88;100.00
4392;BME280;2210;51.938;8.488;2022-11-20T06:26:51;100154.66;;;-4.84;100.00
4392;BME280;2210;51.938;8.488;2022-11-20T06:30:51;100160.19;;;-4.86;100.00
4392;BME280;2210;51.938;8.488;2022-11-20T06:34:51;100155.94;;;-4.88;100.00
4392;BME280;2210;51.938;8.488;2022-11-20T06:38:52;100156.09;;;-4.90;100.00
4392;BME280;2210;51.938;8.488;2022-11-20T06:42:53;100155.63;;;-4.76;100.00
4392;BME280;2210;51.938;8.488;2022-11-20T06:46:54;100155.94;;;-4.79;100.00
4392;BME280;2210;51.938;8.488;2022-11-20T06:50:55;100160.28;;;-4.78;100.00
4392;BME280;2210;51.938;8.488;2022-11-20T06:54:55;100156.53;;;-4.95;100.00
4392;BME280;2210;51.938;8.488;2022-11-20T06:58:56;100152.81;;;-4.84;100.00
4392;BME280;2210;51.938;8.488;2022-11-20T07:02:56;100153.66;;;-4.83;100.00
4392;BME280;2210;51.938;8.488;2022-11-20T07:06:56;100155.38;;;-4.54;100.00
4392;BME280;2210;51.938;8.488;2022-11-20T07:11:01;100156.50;;;-4.47;100.00
4392;BME280;2210;51.938;8.488;2022-11-20T07:15:02;100168.47;;;-4.32;100.00
4392;BME280;2210;51.938;8.488;2022-11-20T07:19:02;100176.28;;;-4.11;100.00
4392;BME280;2210;51.938;8.488;2022-11-20T07:23:03;100176.81;;;-4.07;100.00
4392;BME280;2210;51.938;8.488;2022-11-20T07:27:04;100177.97;;;-4.10;100.00
4392;BME280;2210;51.938;8.488;2022-11-20T07:31:05;100168.81;;;-3.99;100.00
4392;BME280;2210;51.938;8.488;2022-11-20T07:35:07;100177.22;;;-3.84;100.00
4392;BME280;2210;51.938;8.488;2022-11-20T07:39:07;100190.16;;;-4.05;100.00
4392;BME280;2210;51.938;8.488;2022-11-20T07:43:07;100190.56;;;-3.82;100.00
4392;BME280;2210;51.938;8.488;2022-11-20T07:47:08;100184.19;;;-3.63;100.00
4392;BME280;2210;51.938;8.488;2022-11-20T07:51:08;100182.41;;;-3.54;100.00
4392;BME280;2210;51.938;8.488;2022-11-20T07:55:09;100187.88;;;-3.64;100.00
4392;BME280;2210;51.938;8.488;2022-11-20T07:59:10;100182.19;;;-3.61;100.00
4392;BME280;2210;51.938;8.488;2022-11-20T08:03:11;100184.94;;;-3.53;100.00
4392;BME280;2210;51.938;8.488;2022-11-20T08:07:12;100177.56;;;-3.69;100.00
4392;BME280;2210;51.938;8.488;2022-11-20T08:11:13;100176.31;;;-3.39;100.00
4392;BME280;2210;51.938;8.488;2022-11-20T08:24:13;100174.88;;;-3.07;100.00
4392;BME280;2210;51.938;8.488;2022-11-20T08:28:13;100167.75;;;-3.16;100.00
4392;BME280;2210;51.938;8.488;2022-11-20T08:32:13;100172.13;;;-3.15;100.00
4392;BME280;2210;51.938;8.488;2022-11-20T08:36:14;100168.03;;;-3.01;100.00
4392;BME280;2210;51.938;8.488;2022-11-20T08:40:15;100176.56;;;-2.88;100.00
4392;BME280;2210;51.938;8.488;2022-11-20T08:44:15;100168.47;;;-2.88;100.00
4392;BME280;2210;51.938;8.488;2022-11-20T08:48:15;100167.47;;;-2.78;100.00
4392;BME280;2210;51.938;8.488;2022-11-20T08:52:15;100167.00;;;-2.74;100.00
4392;BME280;2210;51.938;8.488;2022-11-20T08:56:16;100164.31;;;-2.74;100.00
4392;BME280;2210;51.938;8.488;2022-11-20T09:00:17;100164.81;;;-2.70;100.00
4392;BME280;2210;51.938;8.488;2022-11-20T09:04:17;100164.97;;;-2.45;100.00
4392;BME280;2210;51.938;8.488;2022-11-20T09:08:18;100157.56;;;-2.35;100.00
4392;BME280;2210;51.938;8.488;2022-11-20T09:12:18;100149.69;;;-2.20;100.00
4392;BME280;2210;51.938;8.488;2022-11-20T09:16:18;100153.38;;;-2.29;100.00
4392;BME280;2210;51.938;8.488;2022-11-20T09:20:19;100148.03;;;-2.21;100.00
4392;BME280;2210;51.938;8.488;2022-11-20T09:24:19;100159.19;;;-2.08;100.00
4392;BME280;2210;51.938;8.488;2022-11-20T09:28:21;100146.56;;;-1.99;100.00
4392;BME280;2210;51.938;8.488;2022-11-20T09:32:21;100145.88;;;-1.93;100.00
4392;BME280;2210;51.938;8.488;2022-11-20T09:36:22;100146.59;;;-1.74;100.00
4392;BME280;2210;51.938;8.488;2022-11-20T09:40:27;100144.94;;;-1.59;100.00
4392;BME280;2210;51.938;8.488;2022-11-20T09:57:38;100139.34;;;-0.99;100.00
4392;BME280;2210;51.938;8.488;2022-11-20T10:01:40;100126.31;;;-0.96;100.00
4392;BME280;2210;51.938;8.488;2022-11-20T10:05:48;100125.44;;;-0.80;100.00
4392;BME280;2210;51.938;8.488;2022-11-20T10:09:54;100115.59;;;-0.73;100.00
4392;BME280;2210;51.938;8.488;2022-11-20T10:22:55;100103.38;;;-0.60;100.00
4392;BME280;2210;51.938;8.488;2022-11-20T10:27:14;100109.91;;;-0.46;100.00
4392;BME280;2210;51.938;8.488;2022-11-20T10:31:32;100106.47;;;-0.32;100.00
4392;BME280;2210;51.938;8.488;2022-11-20T10:35:39;100096.63;;;-0.25;100.00
4392;BME280;2210;51.938;8.488;2022-11-20T10:40:05;100095.56;;;-0.15;100.00
4392;BME280;2210;51.938;8.488;2022-11-20T10:44:16;100081.25;;;-0.01;100.00
4392;BME280;2210;51.938;8.488;2022-11-20T10:48:37;100079.78;;;-0.12;100.00
4392;BME280;2210;51.938;8.488;2022-11-20T10:57:13;100066.06;;;0.13;100.00
4392;BME280;2210;51.938;8.488;2022-11-20T11:01:19;100056.44;;;0.10;100.00
4392;BME280;2210;51.938;8.488;2022-11-20T11:05:33;100052.31;;;0.38;100.00
4392;BME280;2210;51.938;8.488;2022-11-20T11:09:40;100045.69;;;0.40;100.00
4392;BME280;2210;51.938;8.488;2022-11-20T11:13:42;100040.75;;;0.44;100.00
4392;BME280;2210;51.938;8.488;2022-11-20T11:17:47;100036.16;;;0.44;100.00
4392;BME280;2210;51.938;8.488;2022-11-20T11:21:56;100032.16;;;0.55;100.00
4392;BME280;2210;51.938;8.488;2022-11-20T11:25:59;100026.56;;;0.72;100.00
4392;BME280;2210;51.938;8.488;2022-11-20T11:30:17;100030.41;;;0.77;100.00
4392;BME280;2210;51.938;8.488;2022-11-20T11:34:17;100030.50;;;0.84;100.00
4392;BME280;2210;51.938;8.488;2022-11-20T11:38:29;100025.66;;;0.94;100.00
4392;BME280;2210;51.938;8.488;2022-11-20T11:42:31;100012.00;;;1.03;100.00
4392;BME280;2210;51.938;8.488;2022-11-20T11:46:32;100001.97;;;1.03;100.00
4392;BME280;2210;51.938;8.488;2022-11-20T11:50:34;99999.19;;;0.96;100.00
4392;BME280;2210;51.938;8.488;2022-11-20T12:06:39;100003.91;;;1.24;100.00
4392;BME280;2210;51.938;8.488;2022-11-20T12:15:26;99987.63;;;1.24;100.00
4392;BME280;2210;51.938;8.488;2022-11-20T12:19:34;99991.38;;;1.23;100.00
4392;BME280;2210;51.938;8.488;2022-11-20T12:23:56;99976.84;;;1.31;100.00
4392;BME280;2210;51.938;8.488;2022-11-20T12:32:28;99966.25;;;1.36;100.00
4392;BME280;2210;51.938;8.488;2022-11-20T12:45:46;99962.56;;;1.22;100.00
4392;BME280;2210;51.938;8.488;2022-11-20T12:59:14;99950.34;;;1.18;100.00
4392;BME280;2210;51.938;8.488;2022-11-20T13:03:44;99942.59;;;1.15;100.00
4392;BME280;2210;51.938;8.488;2022-11-20T13:07:50;99947.91;;;1.23;100.00
4392;BME280;2210;51.938;8.488;2022-11-20T13:12:12;99942.28;;;1.25;100.00
4392;BME280;2210;51.938;8.488;2022-11-20T13:20:43;99930.84;;;1.44;100.00
4392;BME280;2210;51.938;8.488;2022-11-20T13:24:50;99924.44;;;1.52;100.00
4392;BME280;2210;51.938;8.488;2022-11-20T13:29:07;99924.06;;;1.55;100.00
4392;BME280;2210;51.938;8.488;2022-11-20T13:37:32;99919.91;;;1.59;100.00
4392;BME280;2210;51.938;8.488;2022-11-20T13:41:35;99906.53;;;1.58;100.00
4392;BME280;2210;51.938;8.488;2022-11-20T13:45:37;99897.28;;;1.52;100.00
4392;BME280;2210;51.938;8.488;2022-11-20T13:49:39;99889.22;;;1.44;100.00
4392;BME280;2210;51.938;8.488;2022-11-20T14:02:29;99855.09;;;1.34;100.00
4392;BME280;2210;51.938;8.488;2022-11-20T14:06:32;99858.44;;;1.37;100.00
4392;BME280;2210;51.938;8.488;2022-11-20T14:10:33;99846.16;;;1.41;100.00
4392;BME280;2210;51.938;8.488;2022-11-20T14:14:33;99843.66;;;1.39;100.00
4392;BME280;2210;51.938;8.488;2022-11-20T14:18:33;99842.03;;;1.45;100.00
4392;BME280;2210;51.938;8.488;2022-11-20T14:22:34;99826.75;;;1.44;100.00
4392;BME280;2210;51.938;8.488;2022-11-20T14:26:34;99821.16;;;1.45;100.00
4392;BME280;2210;51.938;8.488;2022-11-20T14:30:47;99824.03;;;1.44;100.00
4392;BME280;2210;51.938;8.488;2022-11-20T14:34:49;99826.97;;;1.42;100.00
4392;BME280;2210;51.938;8.488;2022-11-20T14:38:51;99823.16;;;1.37;100.00
4392;BME280;2210;51.938;8.488;2022-11-20T14:42:52;99815.41;;;1.33;100.00
4392;BME280;2210;51.938;8.488;2022-11-20T14:46:53;99811.00;;;1.32;100.00
4392;BME280;2210;51.938;8.488;2022-11-20T14:50:55;99816.81;;;1.29;100.00
4392;BME280;2210;51.938;8.488;2022-11-20T14:54:57;99806.34;;;1.26;100.00
4392;BME280;2210;51.938;8.488;2022-11-20T14:59:00;99798.00;;;1.28;100.00
4392;BME280;2210;51.938;8.488;2022-11-20T15:03:01;99792.13;;;1.24;100.00
4392;BME280;2210;51.938;8.488;2022-11-20T15:07:01;99779.97;;;1.20;100.00
4392;BME280;2210;51.938;8.488;2022-11-20T15:11:02;99769.50;;;1.17;100.00
4392;BME280;2210;51.938;8.488;2022-11-20T15:15:03;99764.91;;;1.17;100.00
4392;BME280;2210;51.938;8.488;2022-11-20T15:19:17;99769.88;;;1.14;100.00
4392;BME280;2210;51.938;8.488;2022-11-20T15:23:18;99765.31;;;1.14;100.00
4392;BME280;2210;51.938;8.488;2022-11-20T15:27:19;99756.13;;;1.15;100.00
4392;BME280;2210;51.938;8.488;2022-11-20T15:31:21;99750.09;;;1.20;100.00
4392;BME280;2210;51.938;8.488;2022-11-20T15:35:22;99744.00;;;1.18;100.00
4392;BME280;2210;51.938;8.488;2022-11-20T15:39:22;99739.44;;;1.18;100.00
4392;BME280;2210;51.938;8.488;2022-11-20T15:43:22;99737.75;;;1.17;100.00
4392;BME280;2210;51.938;8.488;2022-11-20T15:47:27;99741.97;;;1.20;100.00
4392;BME280;2210;51.938;8.488;2022-11-20T15:51:47;99736.13;;;1.23;100.00
4392;BME280;2210;51.938;8.488;2022-11-20T16:00:54;99723.22;;;1.25;100.00
4392;BME280;2210;51.938;8.488;2022-11-20T16:05:04;99736.78;;;1.25;100.00
4392;BME280;2210;51.938;8.488;2022-11-20T16:09:04;99724.91;;;1.26;100.00
4392;BME280;2210;51.938;8.488;2022-11-20T16:13:05;99707.19;;;1.30;100.00
4392;BME280;2210;51.938;8.488;2022-11-20T16:17:29;99698.56;;;1.27;100.00
4392;BME280;2210;51.938;8.488;2022-11-20T16:21:42;99691.25;;;1.27;100.00
4392;BME280;2210;51.938;8.488;2022-11-20T16:25:43;99689.41;;;1.28;100.00
4392;BME280;2210;51.938;8.488;2022-11-20T16:29:43;99689.41;;;1.28;100.00
4392;BME280;2210;51.938;8.488;2022-11-20T16:33:49;99680.66;;;1.32;100.00
4392;BME280;2210;51.938;8.488;2022-11-20T16:37:50;99679.56;;;1.27;100.00
4392;BME280;2210;51.938;8.488;2022-11-20T16:41:50;99667.47;;;1.29;100.00
4392;BME280;2210;51.938;8.488;2022-11-20T16:45:50;99666.81;;;1.27;100.00
4392;BME280;2210;51.938;8.488;2022-11-20T16:49:51;99663.06;;;1.28;100.00
4392;BME280;2210;51.938;8.488;2022-11-20T16:53:51;99655.59;;;1.30;100.00
4392;BME280;2210;51.938;8.488;2022-11-20T16:57:52;99642.63;;;1.32;100.00
4392;BME280;2210;51.938;8.488;2022-11-20T17:01:52;99628.44;;;1.30;100.00
4392;BME280;2210;51.938;8.488;2022-11-20T17:05:53;99621.25;;;1.23;100.00
4392;BME280;2210;51.938;8.488;2022-11-20T17:09:53;99618.34;;;1.24;100.00
4392;BME280;2210;51.938;8.488;2022-11-20T17:13:55;99614.81;;;1.24;100.00
4392;BME280;2210;51.938;8.488;2022-11-20T17:17:55;99612.91;;;1.24;100.00
4392;BME280;2210;51.938;8.488;2022-11-20T17:21:56;99614.41;;;1.27;100.00
4392;BME280;2210;51.938;8.488;2022-11-20T17:26:01;99601.28;;;1.30;100.00
4392;BME280;2210;51.938;8.488;2022-11-20T17:30:02;99597.91;;;1.28;100.00
4392;BME280;2210;51.938;8.488;2022-11-20T17:34:04;99590.41;;;1.30;100.00
4392;BME280;2210;51.938;8.488;2022-11-20T17:38:04;99579.72;;;1.29;100.00
4392;BME280;2210;51.938;8.488;2022-11-20T17:42:04;99581.00;;;1.26;100.00
4392;BME280;2210;51.938;8.488;2022-11-20T17:46:28;99572.00;;;1.26;100.00
4392;BME280;2210;51.938;8.488;2022-11-20T17:50:29;99565.72;;;1.25;100.00
4392;BME280;2210;51.938;8.488;2022-11-20T17:54:29;99565.31;;;1.28;99.89
4392;BME280;2210;51.938;8.488;2022-11-20T17:58:30;99564.91;;;1.31;98.83
4392;BME280;2210;51.938;8.488;2022-11-20T18:02:30;99560.53;;;1.30;99.36
4392;BME280;2210;51.938;8.488;2022-11-20T18:06:31;99549.03;;;1.28;99.58
4392;BME280;2210;51.938;8.488;2022-11-20T18:10:31;99557.81;;;1.30;99.92
4392;BME280;2210;51.938;8.488;2022-11-20T18:14:32;99561.38;;;1.31;99.75
4392;BME280;2210;51.938;8.488;2022-11-20T18:18:33;99565.31;;;1.28;100.00
4392;BME280;2210;51.938;8.488;2022-11-20T18:22:34;99561.13;;;1.26;100.00
4392;BME280;2210;51.938;8.488;2022-11-20T18:26:34;99559.66;;;1.23;100.00
4392;BME280;2210;51.938;8.488;2022-11-20T18:30:35;99567.50;;;1.05;100.00
4392;BME280;2210;51.938;8.488;2022-11-20T18:34:35;99563.56;;;0.79;100.00
4392;BME280;2210;51.938;8.488;2022-11-20T18:38:35;99564.06;;;0.67;100.00
4392;BME280;2210;51.938;8.488;2022-11-20T18:42:39;99548.81;;;0.60;100.00
4392;BME280;2210;51.938;8.488;2022-11-20T18:46:58;99546.09;;;0.60;100.00
4392;BME280;2210;51.938;8.488;2022-11-20T18:51:06;99532.28;;;0.55;100.00
4392;BME280;2210;51.938;8.488;2022-11-20T18:55:07;99523.69;;;0.51;100.00
4392;BME280;2210;51.938;8.488;2022-11-20T18:59:09;99520.97;;;0.51;100.00
4392;BME280;2210;51.938;8.488;2022-11-20T19:03:09;99505.72;;;0.50;100.00
4392;BME280;2210;51.938;8.488;2022-11-20T19:07:09;99493.84;;;0.51;100.00
4392;BME280;2210;51.938;8.488;2022-11-20T19:11:13;99481.31;;;0.50;100.00
4392;BME280;2210;51.938;8.488;2022-11-20T19:15:13;99484.44;;;0.47;100.00
4392;BME280;2210;51.938;8.488;2022-11-20T19:19:14;99465.88;;;0.44;100.00
4392;BME280;2210;51.938;8.488;2022-11-20T19:23:14;99464.19;;;0.43;100.00
4392;BME280;2210;51.938;8.488;2022-11-20T19:27:17;99454.16;;;0.43;100.00
4392;BME280;2210;51.938;8.488;2022-11-20T19:31:19;99449.19;;;0.47;100.00
4392;BME280;2210;51.938;8.488;2022-11-20T19:35:20;99435.00;;;0.45;100.00
4392;BME280;2210;51.938;8.488;2022-11-20T19:39:20;99431.69;;;0.49;100.00
4392;BME280;2210;51.938;8.488;2022-11-20T19:43:20;99440.03;;;0.48;100.00
4392;BME280;2210;51.938;8.488;2022-11-20T19:47:21;99426.47;;;0.48;100.00
4392;BME280;2210;51.938;8.488;2022-11-20T19:51:30;99419.63;;;0.52;100.00
4392;BME280;2210;51.938;8.488;2022-11-20T19:55:30;99414.19;;;0.52;100.00
4392;BME280;2210;51.938;8.488;2022-11-20T19:59:31;99405.66;;;0.55;100.00
4392;BME280;2210;51.938;8.488;2022-11-20T20:03:31;99400.88;;;0.57;100.00
4392;BME280;2210;51.938;8.488;2022-11-20T20:07:32;99393.34;;;0.59;100.00
4392;BME280;2210;51.938;8.488;2022-11-20T20:11:33;99391.91;;;0.63;100.00
4392;BME280;2210;51.938;8.488;2022-11-20T20:15:38;99384.84;;;0.69;100.00
4392;BME280;2210;51.938;8.488;2022-11-20T20:19:39;99375.44;;;0.65;100.00
4392;BME280;2210;51.938;8.488;2022-11-20T20:23:40;99365.81;;;0.62;100.00
4392;BME280;2210;51.938;8.488;2022-11-20T20:27:41;99368.38;;;0.64;100.00
4392;BME280;2210;51.938;8.488;2022-11-20T20:31:41;99349.38;;;0.64;100.00
4392;BME280;2210;51.938;8.488;2022-11-20T20:35:42;99336.22;;;0.67;100.00
4392;BME280;2210;51.938;8.488;2022-11-20T20:39:42;99338.69;;;0.62;100.00
4392;BME280;2210;51.938;8.488;2022-11-20T20:43:42;99331.88;;;0.66;100.00
4392;BME280;2210;51.938;8.488;2022-11-20T20:48:01;99325.38;;;0.67;100.00
4392;BME280;2210;51.938;8.488;2022-11-20T20:52:01;99328.50;;;0.64;100.00
4392;BME280;2210;51.938;8.488;2022-11-20T20:56:02;99315.19;;;0.70;100.00
4392;BME280;2210;51.938;8.488;2022-11-20T21:00:04;99305.34;;;0.69;100.00
4392;BME280;2210;51.938;8.488;2022-11-20T21:04:04;99295.56;;;0.74;100.00
4392;BME280;2210;51.938;8.488;2022-11-20T21:08:05;99297.25;;;0.75;100.00
4392;BME280;2210;51.938;8.488;2022-11-20T21:12:20;99290.13;;;0.74;100.00
4392;BME280;2210;51.938;8.488;2022-11-20T21:16:20;99286.84;;;0.86;100.00
4392;BME280;2210;51.938;8.488;2022-11-20T21:20:21;99277.84;;;0.78;100.00
4392;BME280;2210;51.938;8.488;2022-11-20T21:24:40;99269.91;;;0.77;100.00
4392;BME280;2210;51.938;8.488;2022-11-20T21:28:41;99271.16;;;0.81;100.00
4392;BME280;2210;51.938;8.488;2022-11-20T21:32:41;99267.00;;;0.78;100.00
4392;BME280;2210;51.938;8.488;2022-11-20T21:36:42;99261.97;;;0.75;100.00
4392;BME280;2210;51.938;8.488;2022-11-20T21:40:42;99258.22;;;0.70;100.00
4392;BME280;2210;51.938;8.488;2022-11-20T21:44:42;99258.63;;;0.66;100.00
4392;BME280;2210;51.938;8.488;2022-11-20T21:48:44;99249.84;;;0.64;100.00
4392;BME280;2210;51.938;8.488;2022-11-20T21:52:44;99250.25;;;0.61;100.00
4392;BME280;2210;51.938;8.488;2022-11-20T21:56:45;99243.56;;;0.57;100.00
4392;BME280;2210;51.938;8.488;2022-11-20T22:00:45;99248.78;;;0.59;100.00
4392;BME280;2210;51.938;8.488;2022-11-20T22:04:45;99243.56;;;0.57;100.00
4392;BME280;2210;51.938;8.488;2022-11-20T22:08:46;99250.88;;;0.63;100.00
4392;BME280;2210;51.938;8.488;2022-11-20T22:12:47;99242.13;;;0.61;100.00
4392;BME280;2210;51.938;8.488;2022-11-20T22:16:49;99244.19;;;0.59;100.00
4392;BME280;2210;51.938;8.488;2022-11-20T22:20:49;99245.22;;;0.58;100.00
4392;BME280;2210;51.938;8.488;2022-11-20T22:24:50;99235.84;;;0.61;100.00
4392;BME280;2210;51.938;8.488;2022-11-20T22:28:52;99246.91;;;0.59;100.00
4392;BME280;2210;51.938;8.488;2022-11-20T22:32:52;99237.09;;;0.58;100.00
4392;BME280;2210;51.938;8.488;2022-11-20T22:36:55;99246.50;;;0.62;100.00
4392;BME280;2210;51.938;8.488;2022-11-20T22:41:09;99251.50;;;0.59;100.00
4392;BME280;2210;51.938;8.488;2022-11-20T22:45:10;99263.41;;;0.64;100.00
4392;BME280;2210;51.938;8.488;2022-11-20T22:49:11;99272.38;;;0.65;100.00
4392;BME280;2210;51.938;8.488;2022-11-20T22:53:11;99272.38;;;0.65;100.00
4392;BME280;2210;51.938;8.488;2022-11-20T22:57:11;99280.72;;;0.63;100.00
4392;BME280;2210;51.938;8.488;2022-11-20T23:01:14;99284.91;;;0.66;100.00
4392;BME280;2210;51.938;8.488;2022-11-20T23:05:15;99283.22;;;0.65;100.00
4392;BME280;2210;51.938;8.488;2022-11-20T23:09:15;99289.72;;;0.64;100.00
4392;BME280;2210;51.938;8.488;2022-11-20T23:13:16;99284.47;;;0.56;100.00
4392;BME280;2210;51.938;8.488;2022-11-20T23:17:16;99294.91;;;0.59;100.00
4392;BME280;2210;51.938;8.488;2022-11-20T23:21:17;99303.03;;;0.59;100.00
4392;BME280;2210;51.938;8.488;2022-11-20T23:25:18;99299.47;;;0.58;100.00
4392;BME280;2210;51.938;8.488;2022-11-20T23:29:18;99298.63;;;0.58;100.00
4392;BME280;2210;51.938;8.488;2022-11-20T23:33:18;99305.53;;;0.60;100.00